Kezdőlap
METAR-TAF:

METAR-TAF

Repülőterek :

Buffalo Municipal Airport

Buffalo, Minnesota, Amerikai Egyesült Államok

földrajzi szélesség: 45-09-32N, földrajzi hosszúság: 093-50-35W, magasság: 295 m

Jelenlegi meteorológiai megfigyelések

A jelentés 24 perccel ezelõtt készült, 11:35 UTC
Szélcsend
Hőmérséklet -3°C
Páratartalom 93%
Légköri nyomás 1019 hPa
Látótávolság: 16.1 km
Derült ég

METAR: KCFE 231135Z AUTO 00000KT 10SM CLR M03/M04 A3008 RMK AO2 P0002

Idő: 06:59 (11:59 UTC)


TAF: hiányzik

Meteorológiai megfigyelések és előrejelzések több, mint 4000 repülőtéren (METAR és TAF jelentéseket).

A térképen piros és sárga pontok jelzik az elérhető meteorológiai állomásokat.

Mozgassa az egeret a pont fölött, hogy megjelenjen az állomás neve.

Azután kattintson az időjárási megfigyelések és előrejelzések megtekintéséhez.

A térkép megváltoztatása: kattintson a fekete keresztel jelölt zöld gombra ráközelítéshez, a vonallal jelölt zöld gombra távolításhoz, vagy a zöld nyilakra a szomszédos térképek eléréséhez.


METAR-TAF: